sensor_id;sensor_type;location;lat;lon;timestamp;pressure;altitude;pressure_sealevel;temperature;humidity
57050;BME280;42935;50.966;16.992;2023-03-11T00:02:48;98736.36;;;7.01;100.00
57050;BME280;42935;50.966;16.992;2023-03-11T00:06:37;98748.65;;;7.00;100.00
57050;BME280;42935;50.966;16.992;2023-03-11T00:10:33;98745.80;;;6.87;100.00
57050;BME280;42935;50.966;16.992;2023-03-11T00:13:55;98740.52;;;6.93;100.00
57050;BME280;42935;50.966;16.992;2023-03-11T00:17:09;98693.52;;;6.46;100.00
57050;BME280;42935;50.966;16.992;2023-03-11T00:20:31;98740.12;;;6.72;100.00
57050;BME280;42935;50.966;16.992;2023-03-11T00:23:48;98748.80;;;6.70;100.00
57050;BME280;42935;50.966;16.992;2023-03-11T00:27:05;98763.07;;;6.74;100.00
57050;BME280;42935;50.966;16.992;2023-03-11T00:30:54;98755.72;;;6.69;100.00
57050;BME280;42935;50.966;16.992;2023-03-11T00:34:18;98766.52;;;6.71;100.00
57050;BME280;42935;50.966;16.992;2023-03-11T00:37:37;98765.10;;;6.73;100.00
57050;BME280;42935;50.966;16.992;2023-03-11T00:40:54;98764.67;;;6.70;100.00
57050;BME280;42935;50.966;16.992;2023-03-11T00:44:09;98739.56;;;6.54;100.00
57050;BME280;42935;50.966;16.992;2023-03-11T00:47:25;98764.54;;;6.73;100.00
57050;BME280;42935;50.966;16.992;2023-03-11T00:50:41;98766.09;;;6.74;100.00
57050;BME280;42935;50.966;16.992;2023-03-11T00:53:58;98759.18;;;6.75;100.00
57050;BME280;42935;50.966;16.992;2023-03-11T00:57:18;98753.66;;;6.70;100.00
57050;BME280;42935;50.966;16.992;2023-03-11T01:00:34;98751.65;;;6.53;100.00
57050;BME280;42935;50.966;16.992;2023-03-11T01:03:49;98754.36;;;6.42;100.00
57050;BME280;42935;50.966;16.992;2023-03-11T01:07:07;98752.47;;;6.39;100.00
57050;BME280;42935;50.966;16.992;2023-03-11T01:10:22;98754.96;;;6.27;100.00
57050;BME280;42935;50.966;16.992;2023-03-11T01:13:44;98763.22;;;6.19;100.00
57050;BME280;42935;50.966;16.992;2023-03-11T01:17:03;98760.88;;;6.08;100.00
57050;BME280;42935;50.966;16.992;2023-03-11T01:20:18;98766.16;;;5.95;100.00
57050;BME280;42935;50.966;16.992;2023-03-11T01:23:39;98724.45;;;5.67;100.00
57050;BME280;42935;50.966;16.992;2023-03-11T01:26:59;98761.62;;;5.91;100.00
57050;BME280;42935;50.966;16.992;2023-03-11T01:30:20;98773.61;;;5.93;100.00
57050;BME280;42935;50.966;16.992;2023-03-11T01:33:39;98775.21;;;5.84;100.00
57050;BME280;42935;50.966;16.992;2023-03-11T01:36:58;98774.64;;;5.79;100.00
57050;BME280;42935;50.966;16.992;2023-03-11T01:40:19;98767.40;;;5.74;100.00
57050;BME280;42935;50.966;16.992;2023-03-11T01:43:49;98774.45;;;5.73;100.00
57050;BME280;42935;50.966;16.992;2023-03-11T01:50:42;98772.90;;;5.73;100.00
57050;BME280;42935;50.966;16.992;2023-03-11T01:54:12;98786.75;;;5.68;100.00
57050;BME280;42935;50.966;16.992;2023-03-11T01:58:09;98765.95;;;5.64;100.00
57050;BME280;42935;50.966;16.992;2023-03-11T02:01:28;98762.45;;;5.58;100.00
57050;BME280;42935;50.966;16.992;2023-03-11T02:04:46;98762.98;;;5.52;100.00
57050;BME280;42935;50.966;16.992;2023-03-11T02:08:05;98766.39;;;5.51;100.00
57050;BME280;42935;50.966;16.992;2023-03-11T02:11:23;98767.18;;;5.51;100.00
57050;BME280;42935;50.966;16.992;2023-03-11T02:14:43;98772.30;;;5.40;100.00
57050;BME280;42935;50.966;16.992;2023-03-11T02:18:03;98757.64;;;5.30;100.00
57050;BME280;42935;50.966;16.992;2023-03-11T02:21:30;98773.95;;;5.37;100.00
57050;BME280;42935;50.966;16.992;2023-03-11T02:25:03;98782.13;;;5.31;100.00
57050;BME280;42935;50.966;16.992;2023-03-11T02:28:20;98765.20;;;5.28;100.00
57050;BME280;42935;50.966;16.992;2023-03-11T02:31:44;98761.30;;;5.31;100.00
57050;BME280;42935;50.966;16.992;2023-03-11T02:35:05;98764.06;;;5.23;100.00
57050;BME280;42935;50.966;16.992;2023-03-11T02:38:22;98764.87;;;5.14;100.00
57050;BME280;42935;50.966;16.992;2023-03-11T02:41:43;98758.21;;;5.06;100.00
57050;BME280;42935;50.966;16.992;2023-03-11T02:45:11;98739.70;;;4.80;100.00
57050;BME280;42935;50.966;16.992;2023-03-11T02:48:32;98759.84;;;4.91;100.00
57050;BME280;42935;50.966;16.992;2023-03-11T02:51:52;98765.52;;;4.98;100.00
57050;BME280;42935;50.966;16.992;2023-03-11T02:55:11;98776.72;;;4.98;100.00
57050;BME280;42935;50.966;16.992;2023-03-11T02:58:31;98773.43;;;4.91;100.00
57050;BME280;42935;50.966;16.992;2023-03-11T03:01:48;98737.52;;;4.58;100.00
57050;BME280;42935;50.966;16.992;2023-03-11T03:05:09;98771.54;;;4.81;100.00
57050;BME280;42935;50.966;16.992;2023-03-11T03:08:26;98782.85;;;4.82;100.00
57050;BME280;42935;50.966;16.992;2023-03-11T03:11:46;98791.38;;;4.66;100.00
57050;BME280;42935;50.966;16.992;2023-03-11T03:15:05;98902.25;;;3.33;100.00
57050;BME280;42935;50.966;16.992;2023-03-11T03:18:22;98880.82;;;2.58;100.00
57050;BME280;42935;50.966;16.992;2023-03-11T03:21:37;98874.80;;;2.57;100.00
57050;BME280;42935;50.966;16.992;2023-03-11T03:24:55;98881.75;;;2.60;100.00
57050;BME280;42935;50.966;16.992;2023-03-11T03:28:14;98889.78;;;2.67;100.00
57050;BME280;42935;50.966;16.992;2023-03-11T03:31:31;98883.73;;;2.53;100.00
57050;BME280;42935;50.966;16.992;2023-03-11T03:34:50;98906.19;;;2.57;100.00
57050;BME280;42935;50.966;16.992;2023-03-11T03:38:13;98910.96;;;2.47;100.00
57050;BME280;42935;50.966;16.992;2023-03-11T03:41:28;98919.96;;;2.43;100.00
57050;BME280;42935;50.966;16.992;2023-03-11T03:44:45;98928.59;;;2.36;100.00
57050;BME280;42935;50.966;16.992;2023-03-11T03:48:02;98928.16;;;2.34;100.00
57050;BME280;42935;50.966;16.992;2023-03-11T03:51:19;98941.43;;;2.25;100.00
57050;BME280;42935;50.966;16.992;2023-03-11T03:54:34;98950.27;;;2.26;100.00
57050;BME280;42935;50.966;16.992;2023-03-11T03:57:50;98964.38;;;2.23;100.00
57050;BME280;42935;50.966;16.992;2023-03-11T04:01:09;98950.86;;;2.15;99.51
57050;BME280;42935;50.966;16.992;2023-03-11T04:04:25;98957.00;;;2.19;97.85
57050;BME280;42935;50.966;16.992;2023-03-11T04:07:40;98957.35;;;2.01;100.00
57050;BME280;42935;50.966;16.992;2023-03-11T04:10:58;98973.74;;;2.04;99.09
57050;BME280;42935;50.966;16.992;2023-03-11T04:14:19;99001.71;;;1.98;100.00
57050;BME280;42935;50.966;16.992;2023-03-11T04:17:39;98987.90;;;1.94;97.39
57050;BME280;42935;50.966;16.992;2023-03-11T04:20:56;98981.71;;;1.82;98.13
57050;BME280;42935;50.966;16.992;2023-03-11T04:24:10;98984.81;;;1.75;93.90
57050;BME280;42935;50.966;16.992;2023-03-11T04:27:57;98980.25;;;1.71;93.95
57050;BME280;42935;50.966;16.992;2023-03-11T04:31:11;98979.08;;;1.66;94.93
57050;BME280;42935;50.966;16.992;2023-03-11T04:34:26;98976.00;;;1.61;97.81
57050;BME280;42935;50.966;16.992;2023-03-11T04:37:43;99000.33;;;1.64;94.96
57050;BME280;42935;50.966;16.992;2023-03-11T04:41:03;98993.70;;;1.62;94.68
57050;BME280;42935;50.966;16.992;2023-03-11T04:44:16;98996.48;;;1.54;97.53
57050;BME280;42935;50.966;16.992;2023-03-11T04:47:37;99021.11;;;1.61;95.69
57050;BME280;42935;50.966;16.992;2023-03-11T04:50:53;99011.03;;;1.56;96.86
57050;BME280;42935;50.966;16.992;2023-03-11T04:54:10;99026.54;;;1.53;95.45
57050;BME280;42935;50.966;16.992;2023-03-11T04:57:27;99043.77;;;1.47;95.07
57050;BME280;42935;50.966;16.992;2023-03-11T05:00:47;99036.65;;;1.40;95.00
57050;BME280;42935;50.966;16.992;2023-03-11T05:04:05;99024.31;;;1.32;94.83
57050;BME280;42935;50.966;16.992;2023-03-11T05:07:23;99041.11;;;1.28;94.96
57050;BME280;42935;50.966;16.992;2023-03-11T05:10:41;99047.24;;;1.23;96.32
57050;BME280;42935;50.966;16.992;2023-03-11T05:13:57;99069.41;;;1.21;94.75
57050;BME280;42935;50.966;16.992;2023-03-11T05:17:13;99082.91;;;1.24;96.25
57050;BME280;42935;50.966;16.992;2023-03-11T05:20:34;99097.00;;;1.13;97.14
57050;BME280;42935;50.966;16.992;2023-03-11T05:23:49;99101.39;;;1.09;99.44
57050;BME280;42935;50.966;16.992;2023-03-11T05:27:10;99106.91;;;1.02;100.00
57050;BME280;42935;50.966;16.992;2023-03-11T05:30:27;99107.54;;;0.92;100.00
57050;BME280;42935;50.966;16.992;2023-03-11T05:33:44;99109.34;;;0.86;100.00
57050;BME280;42935;50.966;16.992;2023-03-11T05:37:03;99120.55;;;0.76;100.00
57050;BME280;42935;50.966;16.992;2023-03-11T05:40:21;99111.09;;;0.71;100.00
57050;BME280;42935;50.966;16.992;2023-03-11T05:43:38;99100.34;;;0.58;100.00
57050;BME280;42935;50.966;16.992;2023-03-11T05:46:55;99133.84;;;0.60;100.00
57050;BME280;42935;50.966;16.992;2023-03-11T05:50:12;99120.46;;;0.51;100.00
57050;BME280;42935;50.966;16.992;2023-03-11T05:53:29;99123.83;;;0.33;100.00
57050;BME280;42935;50.966;16.992;2023-03-11T05:56:49;99134.80;;;0.31;100.00
57050;BME280;42935;50.966;16.992;2023-03-11T06:00:10;99156.06;;;0.13;100.00
57050;BME280;42935;50.966;16.992;2023-03-11T06:03:27;99157.32;;;0.04;100.00
57050;BME280;42935;50.966;16.992;2023-03-11T06:06:47;99159.51;;;-0.10;100.00
57050;BME280;42935;50.966;16.992;2023-03-11T06:10:03;99146.65;;;-0.16;100.00
57050;BME280;42935;50.966;16.992;2023-03-11T06:13:20;99165.11;;;-0.17;100.00
57050;BME280;42935;50.966;16.992;2023-03-11T06:16:37;99146.89;;;-0.31;100.00
57050;BME280;42935;50.966;16.992;2023-03-11T06:19:57;99169.89;;;-0.25;100.00
57050;BME280;42935;50.966;16.992;2023-03-11T06:23:15;99167.08;;;-0.40;100.00
57050;BME280;42935;50.966;16.992;2023-03-11T06:26:32;99220.05;;;-0.37;100.00
57050;BME280;42935;50.966;16.992;2023-03-11T06:29:53;99184.43;;;-0.50;100.00
57050;BME280;42935;50.966;16.992;2023-03-11T06:33:08;99215.27;;;-0.47;100.00
57050;BME280;42935;50.966;16.992;2023-03-11T06:36:27;99206.84;;;-0.56;100.00
57050;BME280;42935;50.966;16.992;2023-03-11T06:39:51;99225.02;;;-0.64;100.00
57050;BME280;42935;50.966;16.992;2023-03-11T06:43:06;99203.10;;;-0.83;100.00
57050;BME280;42935;50.966;16.992;2023-03-11T06:46:23;99223.73;;;-0.76;100.00
57050;BME280;42935;50.966;16.992;2023-03-11T06:49:40;99231.20;;;-0.87;100.00
57050;BME280;42935;50.966;16.992;2023-03-11T06:53:04;99251.74;;;-0.80;100.00
57050;BME280;42935;50.966;16.992;2023-03-11T06:56:23;99250.27;;;-0.81;100.00
57050;BME280;42935;50.966;16.992;2023-03-11T06:59:38;99263.91;;;-0.82;100.00
57050;BME280;42935;50.966;16.992;2023-03-11T07:02:55;99256.75;;;-0.89;100.00
57050;BME280;42935;50.966;16.992;2023-03-11T07:06:18;99278.68;;;-0.91;100.00
57050;BME280;42935;50.966;16.992;2023-03-11T07:09:35;99294.11;;;-0.81;100.00
57050;BME280;42935;50.966;16.992;2023-03-11T07:12:51;99295.70;;;-0.86;100.00
57050;BME280;42935;50.966;16.992;2023-03-11T07:16:23;99307.18;;;-0.76;100.00
57050;BME280;42935;50.966;16.992;2023-03-11T07:19:38;99312.84;;;-0.74;100.00
57050;BME280;42935;50.966;16.992;2023-03-11T07:23:03;99317.48;;;-0.77;100.00
57050;BME280;42935;50.966;16.992;2023-03-11T07:26:21;99333.80;;;-0.78;100.00
57050;BME280;42935;50.966;16.992;2023-03-11T07:29:40;99327.82;;;-0.83;100.00
57050;BME280;42935;50.966;16.992;2023-03-11T07:33:04;99347.63;;;-0.87;100.00
57050;BME280;42935;50.966;16.992;2023-03-11T07:36:22;99351.33;;;-0.85;100.00
57050;BME280;42935;50.966;16.992;2023-03-11T07:39:42;99358.19;;;-0.83;100.00
57050;BME280;42935;50.966;16.992;2023-03-11T07:42:59;99379.80;;;-0.82;100.00
57050;BME280;42935;50.966;16.992;2023-03-11T07:46:16;99392.27;;;-0.77;100.00
57050;BME280;42935;50.966;16.992;2023-03-11T07:49:35;99402.57;;;-0.74;100.00
57050;BME280;42935;50.966;16.992;2023-03-11T07:52:52;99407.30;;;-0.77;100.00
57050;BME280;42935;50.966;16.992;2023-03-11T07:56:11;99423.98;;;-0.65;100.00
57050;BME280;42935;50.966;16.992;2023-03-11T07:59:31;99450.02;;;-0.68;100.00
57050;BME280;42935;50.966;16.992;2023-03-11T08:02:48;99457.02;;;-0.55;100.00
57050;BME280;42935;50.966;16.992;2023-03-11T08:06:19;99474.73;;;-0.56;100.00
57050;BME280;42935;50.966;16.992;2023-03-11T08:09:35;99476.01;;;-0.67;100.00
57050;BME280;42935;50.966;16.992;2023-03-11T08:12:51;99505.89;;;-0.59;100.00
57050;BME280;42935;50.966;16.992;2023-03-11T08:16:10;99502.17;;;-0.67;100.00
57050;BME280;42935;50.966;16.992;2023-03-11T08:19:27;99528.05;;;-0.67;100.00
57050;BME280;42935;50.966;16.992;2023-03-11T08:22:44;99532.04;;;-0.72;100.00
57050;BME280;42935;50.966;16.992;2023-03-11T08:26:05;99567.37;;;-0.74;100.00
57050;BME280;42935;50.966;16.992;2023-03-11T08:29:23;99545.41;;;-0.75;100.00
57050;BME280;42935;50.966;16.992;2023-03-11T08:32:44;99558.85;;;-0.71;100.00
57050;BME280;42935;50.966;16.992;2023-03-11T08:36:02;99578.76;;;-0.71;100.00
57050;BME280;42935;50.966;16.992;2023-03-11T08:39:26;99593.24;;;-0.66;100.00
57050;BME280;42935;50.966;16.992;2023-03-11T08:42:43;99589.09;;;-0.74;100.00
57050;BME280;42935;50.966;16.992;2023-03-11T08:46:01;99621.48;;;-0.63;100.00
57050;BME280;42935;50.966;16.992;2023-03-11T08:49:23;99633.22;;;-0.65;100.00
57050;BME280;42935;50.966;16.992;2023-03-11T08:52:42;99633.90;;;-0.62;100.00
57050;BME280;42935;50.966;16.992;2023-03-11T08:56:32;99637.96;;;-0.59;100.00
57050;BME280;42935;50.966;16.992;2023-03-11T08:59:46;99594.20;;;-0.93;100.00
57050;BME280;42935;50.966;16.992;2023-03-11T09:03:12;99657.08;;;-0.60;100.00
57050;BME280;42935;50.966;16.992;2023-03-11T09:06:32;99691.38;;;-0.44;100.00
57050;BME280;42935;50.966;16.992;2023-03-11T09:09:49;99694.89;;;-0.43;100.00
57050;BME280;42935;50.966;16.992;2023-03-11T09:13:08;99682.85;;;-0.54;100.00
57050;BME280;42935;50.966;16.992;2023-03-11T09:16:24;99709.55;;;-0.47;100.00
57050;BME280;42935;50.966;16.992;2023-03-11T09:19:39;99731.24;;;-0.46;100.00
57050;BME280;42935;50.966;16.992;2023-03-11T09:22:56;99724.77;;;-0.46;100.00
57050;BME280;42935;50.966;16.992;2023-03-11T09:26:14;99753.96;;;-0.42;100.00
57050;BME280;42935;50.966;16.992;2023-03-11T09:29:31;99753.16;;;-0.36;100.00
57050;BME280;42935;50.966;16.992;2023-03-11T09:32:51;99761.33;;;-0.32;100.00
57050;BME280;42935;50.966;16.992;2023-03-11T09:36:14;99793.44;;;-0.18;100.00
57050;BME280;42935;50.966;16.992;2023-03-11T09:39:32;99784.27;;;-0.16;100.00
57050;BME280;42935;50.966;16.992;2023-03-11T09:53:40;99827.21;;;-0.07;100.00
57050;BME280;42935;50.966;16.992;2023-03-11T09:57:00;99841.73;;;0.02;100.00
57050;BME280;42935;50.966;16.992;2023-03-11T10:00:18;99843.48;;;0.02;100.00
57050;BME280;42935;50.966;16.992;2023-03-11T10:03:36;99860.01;;;0.12;100.00
57050;BME280;42935;50.966;16.992;2023-03-11T10:06:53;99840.87;;;0.10;100.00
57050;BME280;42935;50.966;16.992;2023-03-11T10:10:17;99850.63;;;0.21;100.00
57050;BME280;42935;50.966;16.992;2023-03-11T10:13:44;99868.53;;;0.14;100.00
57050;BME280;42935;50.966;16.992;2023-03-11T10:17:43;99893.37;;;0.30;100.00
57050;BME280;42935;50.966;16.992;2023-03-11T10:32:04;99935.12;;;0.03;100.00
57050;BME280;42935;50.966;16.992;2023-03-11T10:35:26;99948.71;;;0.12;100.00
57050;BME280;42935;50.966;16.992;2023-03-11T10:38:52;99935.29;;;0.46;100.00
57050;BME280;42935;50.966;16.992;2023-03-11T10:42:15;99939.60;;;0.62;100.00
57050;BME280;42935;50.966;16.992;2023-03-11T10:45:40;99951.92;;;0.40;100.00
57050;BME280;42935;50.966;16.992;2023-03-11T10:49:04;99959.36;;;-0.08;100.00
57050;BME280;42935;50.966;16.992;2023-03-11T10:52:21;99978.02;;;-0.13;100.00
57050;BME280;42935;50.966;16.992;2023-03-11T10:55:47;99992.36;;;0.01;100.00
57050;BME280;42935;50.966;16.992;2023-03-11T10:59:44;99989.23;;;0.20;100.00
57050;BME280;42935;50.966;16.992;2023-03-11T11:06:26;99997.45;;;0.21;100.00
57050;BME280;42935;50.966;16.992;2023-03-11T11:09:44;100013.77;;;0.18;100.00
57050;BME280;42935;50.966;16.992;2023-03-11T11:13:16;100007.64;;;-0.29;100.00
57050;BME280;42935;50.966;16.992;2023-03-11T11:16:35;100030.79;;;-0.22;100.00
57050;BME280;42935;50.966;16.992;2023-03-11T11:19:55;100031.36;;;0.18;100.00
57050;BME280;42935;50.966;16.992;2023-03-11T11:30:14;100037.89;;;0.53;100.00
57050;BME280;42935;50.966;16.992;2023-03-11T11:33:48;100047.79;;;0.71;100.00
57050;BME280;42935;50.966;16.992;2023-03-11T11:37:05;100059.85;;;0.93;100.00
57050;BME280;42935;50.966;16.992;2023-03-11T11:40:31;100065.95;;;0.97;100.00
57050;BME280;42935;50.966;16.992;2023-03-11T11:43:55;100052.61;;;1.21;100.00
57050;BME280;42935;50.966;16.992;2023-03-11T11:47:16;100050.99;;;1.28;100.00
57050;BME280;42935;50.966;16.992;2023-03-11T11:50:44;100085.27;;;1.22;100.00
57050;BME280;42935;50.966;16.992;2023-03-11T11:54:13;100080.83;;;1.18;100.00
57050;BME280;42935;50.966;16.992;2023-03-11T11:57:30;100083.80;;;1.16;100.00
57050;BME280;42935;50.966;16.992;2023-03-11T12:00:57;100078.54;;;1.23;100.00
57050;BME280;42935;50.966;16.992;2023-03-11T12:11:31;100101.94;;;1.05;100.00
57050;BME280;42935;50.966;16.992;2023-03-11T12:18:40;100128.35;;;0.96;100.00
57050;BME280;42935;50.966;16.992;2023-03-11T12:22:07;100119.37;;;0.66;99.09
57050;BME280;42935;50.966;16.992;2023-03-11T12:29:00;100129.75;;;0.67;100.00
57050;BME280;42935;50.966;16.992;2023-03-11T12:35:53;100155.99;;;0.86;100.00
57050;BME280;42935;50.966;16.992;2023-03-11T12:39:20;100175.12;;;0.70;100.00
57050;BME280;42935;50.966;16.992;2023-03-11T12:42:39;100187.92;;;-0.15;100.00
57050;BME280;42935;50.966;16.992;2023-03-11T12:46:03;100180.09;;;-0.33;100.00
57050;BME280;42935;50.966;16.992;2023-03-11T12:49:24;100196.62;;;-0.02;100.00
57050;BME280;42935;50.966;16.992;2023-03-11T12:52:52;100206.16;;;0.11;100.00
57050;BME280;42935;50.966;16.992;2023-03-11T12:59:52;100204.91;;;0.12;100.00
57050;BME280;42935;50.966;16.992;2023-03-11T13:10:15;100223.59;;;0.75;100.00
57050;BME280;42935;50.966;16.992;2023-03-11T13:13:39;100223.21;;;1.56;100.00
57050;BME280;42935;50.966;16.992;2023-03-11T13:27:40;100234.05;;;0.98;100.00
57050;BME280;42935;50.966;16.992;2023-03-11T13:34:41;100264.22;;;0.46;100.00
57050;BME280;42935;50.966;16.992;2023-03-11T13:38:13;100280.46;;;0.42;100.00
57050;BME280;42935;50.966;16.992;2023-03-11T13:41:33;100315.81;;;-0.20;100.00
57050;BME280;42935;50.966;16.992;2023-03-11T13:44:51;100320.69;;;-0.41;100.00
57050;BME280;42935;50.966;16.992;2023-03-11T13:51:41;100314.04;;;-0.71;100.00
57050;BME280;42935;50.966;16.992;2023-03-11T13:55:05;100323.30;;;-0.52;100.00
57050;BME280;42935;50.966;16.992;2023-03-11T13:58:25;100322.90;;;-0.39;100.00
57050;BME280;42935;50.966;16.992;2023-03-11T14:01:49;100327.01;;;-0.32;100.00
57050;BME280;42935;50.966;16.992;2023-03-11T14:05:14;100341.31;;;-0.10;100.00
57050;BME280;42935;50.966;16.992;2023-03-11T14:08:37;100349.25;;;-0.07;100.00
57050;BME280;42935;50.966;16.992;2023-03-11T14:12:03;100347.98;;;-0.14;100.00
57050;BME280;42935;50.966;16.992;2023-03-11T14:15:24;100367.05;;;0.04;100.00
57050;BME280;42935;50.966;16.992;2023-03-11T14:18:44;100354.85;;;0.04;99.45
57050;BME280;42935;50.966;16.992;2023-03-11T14:22:07;100369.91;;;0.18;99.58
57050;BME280;42935;50.966;16.992;2023-03-11T14:25:27;100388.52;;;0.29;97.63
57050;BME280;42935;50.966;16.992;2023-03-11T14:28:58;100411.39;;;0.05;98.07
57050;BME280;42935;50.966;16.992;2023-03-11T14:35:51;100412.11;;;0.20;100.00
57050;BME280;42935;50.966;16.992;2023-03-11T14:42:56;100395.13;;;0.12;100.00
57050;BME280;42935;50.966;16.992;2023-03-11T14:46:23;100418.80;;;0.25;100.00
57050;BME280;42935;50.966;16.992;2023-03-11T14:49:52;100407.47;;;0.33;100.00
57050;BME280;42935;50.966;16.992;2023-03-11T14:53:19;100412.06;;;0.28;100.00
57050;BME280;42935;50.966;16.992;2023-03-11T14:56:48;100420.48;;;0.94;100.00
57050;BME280;42935;50.966;16.992;2023-03-11T15:00:20;100425.90;;;0.55;100.00
57050;BME280;42935;50.966;16.992;2023-03-11T15:07:18;100434.85;;;0.14;100.00
57050;BME280;42935;50.966;16.992;2023-03-11T15:14:20;100451.51;;;0.15;100.00
57050;BME280;42935;50.966;16.992;2023-03-11T15:17:39;100458.98;;;0.62;98.13
57050;BME280;42935;50.966;16.992;2023-03-11T15:21:03;100464.19;;;0.55;90.44
57050;BME280;42935;50.966;16.992;2023-03-11T15:24:27;100448.90;;;0.48;90.98
57050;BME280;42935;50.966;16.992;2023-03-11T15:27:47;100457.73;;;0.49;90.59
57050;BME280;42935;50.966;16.992;2023-03-11T15:31:24;100483.66;;;0.52;92.13
57050;BME280;42935;50.966;16.992;2023-03-11T15:34:32;100479.24;;;0.44;89.16
57050;BME280;42935;50.966;16.992;2023-03-11T15:41:20;100476.48;;;0.26;85.05
57050;BME280;42935;50.966;16.992;2023-03-11T15:48:11;100502.03;;;0.34;85.07
57050;BME280;42935;50.966;16.992;2023-03-11T15:51:29;100519.30;;;0.33;98.20
57050;BME280;42935;50.966;16.992;2023-03-11T15:54:46;100527.25;;;0.25;100.00
57050;BME280;42935;50.966;16.992;2023-03-11T15:58:07;100531.25;;;0.29;100.00
57050;BME280;42935;50.966;16.992;2023-03-11T16:01:29;100522.64;;;0.20;100.00
57050;BME280;42935;50.966;16.992;2023-03-11T16:04:49;100544.05;;;0.29;98.62
57050;BME280;42935;50.966;16.992;2023-03-11T16:08:06;100521.02;;;0.06;97.24
57050;BME280;42935;50.966;16.992;2023-03-11T16:11:21;100542.28;;;0.18;93.71
57050;BME280;42935;50.966;16.992;2023-03-11T16:14:38;100546.00;;;0.23;92.72
57050;BME280;42935;50.966;16.992;2023-03-11T16:17:58;100553.66;;;0.29;87.75
57050;BME280;42935;50.966;16.992;2023-03-11T16:21:17;100561.71;;;0.32;84.58
57050;BME280;42935;50.966;16.992;2023-03-11T16:24:38;100572.16;;;0.28;80.75
57050;BME280;42935;50.966;16.992;2023-03-11T16:27:57;100579.63;;;0.25;79.69
57050;BME280;42935;50.966;16.992;2023-03-11T16:31:14;100589.51;;;0.22;81.70
57050;BME280;42935;50.966;16.992;2023-03-11T16:34:34;100591.38;;;0.18;84.46
57050;BME280;42935;50.966;16.992;2023-03-11T16:37:53;100602.80;;;0.12;85.34
57050;BME280;42935;50.966;16.992;2023-03-11T16:41:10;100617.93;;;0.10;85.84
57050;BME280;42935;50.966;16.992;2023-03-11T16:44:30;100621.17;;;0.00;89.42
57050;BME280;42935;50.966;16.992;2023-03-11T16:47:47;100619.55;;;0.00;91.27
57050;BME280;42935;50.966;16.992;2023-03-11T16:51:04;100626.25;;;-0.11;93.95
57050;BME280;42935;50.966;16.992;2023-03-11T16:54:24;100644.73;;;-0.04;93.82
57050;BME280;42935;50.966;16.992;2023-03-11T16:57:39;100634.34;;;-0.12;96.16
57050;BME280;42935;50.966;16.992;2023-03-11T17:00:57;100649.36;;;-0.07;95.52
57050;BME280;42935;50.966;16.992;2023-03-11T17:04:14;100658.60;;;-0.05;97.42
57050;BME280;42935;50.966;16.992;2023-03-11T17:07:31;100668.27;;;-0.06;96.85
57050;BME280;42935;50.966;16.992;2023-03-11T17:10:47;100661.74;;;-0.18;98.07
57050;BME280;42935;50.966;16.992;2023-03-11T17:14:10;100669.72;;;-0.19;99.42
57050;BME280;42935;50.966;16.992;2023-03-11T17:17:25;100672.84;;;-0.16;98.95
57050;BME280;42935;50.966;16.992;2023-03-11T17:20:45;100690.63;;;-0.18;99.95
57050;BME280;42935;50.966;16.992;2023-03-11T17:24:02;100684.47;;;-0.28;100.00
57050;BME280;42935;50.966;16.992;2023-03-11T17:27:19;100703.21;;;-0.30;100.00
57050;BME280;42935;50.966;16.992;2023-03-11T17:30:42;100704.20;;;-0.41;100.00
57050;BME280;42935;50.966;16.992;2023-03-11T17:33:57;100716.63;;;-0.44;100.00
57050;BME280;42935;50.966;16.992;2023-03-11T17:37:18;100708.16;;;-0.60;100.00
57050;BME280;42935;50.966;16.992;2023-03-11T17:40:34;100724.45;;;-0.52;100.00
57050;BME280;42935;50.966;16.992;2023-03-11T17:43:50;100717.84;;;-0.58;100.00
57050;BME280;42935;50.966;16.992;2023-03-11T17:47:05;100722.70;;;-0.59;100.00
57050;BME280;42935;50.966;16.992;2023-03-11T17:50:25;100741.36;;;-0.51;100.00
57050;BME280;42935;50.966;16.992;2023-03-11T17:53:45;100740.18;;;-0.53;100.00
57050;BME280;42935;50.966;16.992;2023-03-11T17:57:02;100734.20;;;-0.60;100.00
57050;BME280;42935;50.966;16.992;2023-03-11T18:00:20;100749.58;;;-0.52;100.00
57050;BME280;42935;50.966;16.992;2023-03-11T18:03:37;100750.65;;;-0.58;100.00
57050;BME280;42935;50.966;16.992;2023-03-11T18:06:53;100758.15;;;-0.60;100.00
57050;BME280;42935;50.966;16.992;2023-03-11T18:10:16;100773.03;;;-0.60;100.00
57050;BME280;42935;50.966;16.992;2023-03-11T18:13:36;100770.11;;;-0.74;100.00
57050;BME280;42935;50.966;16.992;2023-03-11T18:16:53;100775.93;;;-0.83;100.00
57050;BME280;42935;50.966;16.992;2023-03-11T18:20:15;100798.12;;;-0.81;100.00
57050;BME280;42935;50.966;16.992;2023-03-11T18:23:35;100789.85;;;-0.99;100.00
57050;BME280;42935;50.966;16.992;2023-03-11T18:26:53;100790.14;;;-1.00;100.00
57050;BME280;42935;50.966;16.992;2023-03-11T18:30:13;100805.85;;;-1.04;100.00
57050;BME280;42935;50.966;16.992;2023-03-11T18:33:38;100801.54;;;-1.05;100.00
57050;BME280;42935;50.966;16.992;2023-03-11T18:36:56;100808.66;;;-1.11;100.00
57050;BME280;42935;50.966;16.992;2023-03-11T18:40:14;100820.43;;;-1.09;100.00
57050;BME280;42935;50.966;16.992;2023-03-11T18:43:31;100810.73;;;-1.29;100.00
57050;BME280;42935;50.966;16.992;2023-03-11T18:46:51;100823.98;;;-1.29;100.00
57050;BME280;42935;50.966;16.992;2023-03-11T18:50:09;100821.97;;;-1.28;100.00
57050;BME280;42935;50.966;16.992;2023-03-11T18:53:26;100827.83;;;-1.33;100.00
57050;BME280;42935;50.966;16.992;2023-03-11T18:56:43;100841.05;;;-1.34;100.00
57050;BME280;42935;50.966;16.992;2023-03-11T18:59:58;100853.75;;;-1.30;100.00
57050;BME280;42935;50.966;16.992;2023-03-11T19:03:17;100842.57;;;-1.37;100.00